Time;durP1;ratioP1;P1;durP2;ratioP2;P2;SDS_P1;SDS_P2;PMS_P1;PMS_P2;Temp;Humidity;BMP_temperature;BMP_pressure;BME280_temperature;BME280_humidity;BME280_pressure;Samples;Min_cycle;Max_cycle;Signal;HPM_P1;HPM_P2
2022/10/22 00:01:19;;;;;;;;;;;18.40;63.90;;;;;;4993515;28;20016;-88
2022/10/22 00:03:44;;;;;;;;;;;18.40;63.70;;;;;;4974740;28;19914;-88
2022/10/22 00:06:10;;;;;;;;;;;18.30;63.40;;;;;;4971612;28;19922;-87
2022/10/22 00:08:35;;;;;;;;;;;18.30;63.30;;;;;;4994424;28;19921;-88
2022/10/22 00:11:08;;;;;;;;;;;18.20;63.10;;;;;;4975255;28;19918;-88
2022/10/22 00:13:34;;;;;;;;;;;18.10;62.90;;;;;;4977642;28;19945;-87
2022/10/22 00:15:59;;;;;;;;;;;18.10;63.20;;;;;;4974199;28;19918;-87
2022/10/22 00:18:25;;;;;;;;;;;18.00;63.30;;;;;;4991609;28;20454;-87
2022/10/22 00:20:50;;;;;;;;;;;18.00;63.30;;;;;;4991894;28;19934;-88
2022/10/22 00:23:16;;;;;;;;;;;18.00;63.50;;;;;;4974410;28;20547;-88
2022/10/22 00:25:41;;;;;;;;;;;18.00;63.70;;;;;;4976550;28;20008;-88
2022/10/22 00:28:07;;;;;;;;;;;18.00;63.80;;;;;;4977702;28;19925;-87
2022/10/22 00:30:32;;;;;;;;;;;18.00;63.80;;;;;;4994462;28;20281;-88
2022/10/22 00:32:58;;;;;;;;;;;18.00;64.10;;;;;;4991526;28;20376;-87
2022/10/22 00:35:23;;;;;;;;;;;18.10;64.00;;;;;;4994226;28;20752;-86
2022/10/22 00:37:49;;;;;;;;;;;18.10;63.90;;;;;;5010560;28;19913;-88
2022/10/22 00:40:14;;;;;;;;;;;18.00;63.60;;;;;;4993824;28;19953;-86
2022/10/22 00:42:40;;;;;;;;;;;18.00;63.50;;;;;;4991724;28;19910;-87
2022/10/22 00:45:08;;;;;;;;;;;18.00;63.20;;;;;;4993809;28;19929;-86
2022/10/22 00:47:41;;;;;;;;;;;18.00;63.00;;;;;;4974433;28;20023;-88
2022/10/22 00:50:10;;;;;;;;;;;17.90;62.80;;;;;;4992041;28;19918;-87
2022/10/22 00:52:36;;;;;;;;;;;17.80;62.80;;;;;;4975082;28;20009;-88
2022/10/22 00:55:02;;;;;;;;;;;17.80;62.80;;;;;;4974857;28;19965;-88
2022/10/22 00:57:28;;;;;;;;;;;17.80;62.90;;;;;;4992542;28;19917;-88
2022/10/22 00:59:54;;;;;;;;;;;17.70;63.00;;;;;;4992266;28;19928;-87
2022/10/22 01:02:20;;;;;;;;;;;17.70;62.80;;;;;;4974537;28;19975;-88
2022/10/22 01:04:46;;;;;;;;;;;17.70;62.80;;;;;;4974420;28;20388;-87
2022/10/22 01:07:15;;;;;;;;;;;17.70;62.90;;;;;;4991972;28;20280;-88
2022/10/22 01:09:47;;;;;;;;;;;17.70;63.10;;;;;;4991606;28;19918;-88
2022/10/22 01:12:30;;;;;;;;;;;17.70;63.20;;;;;;4992706;28;19955;-88
2022/10/22 01:15:11;;;;;;;;;;;17.60;63.40;;;;;;4975644;28;20012;-87
2022/10/22 01:17:37;;;;;;;;;;;17.60;63.50;;;;;;4991259;28;19933;-86
2022/10/22 01:20:02;;;;;;;;;;;17.60;63.60;;;;;;4974630;28;19933;-87
2022/10/22 01:22:32;;;;;;;;;;;17.60;63.50;;;;;;4993200;28;19920;-87
2022/10/22 01:25:01;;;;;;;;;;;17.60;63.50;;;;;;4993560;28;19935;-88
2022/10/22 01:27:29;;;;;;;;;;;17.60;63.60;;;;;;4991866;28;19917;-88
2022/10/22 01:30:03;;;;;;;;;;;17.60;63.60;;;;;;4976754;28;19948;-87
2022/10/22 01:32:30;;;;;;;;;;;17.70;63.60;;;;;;4973807;28;19909;-87
2022/10/22 01:35:01;;;;;;;;;;;17.70;63.50;;;;;;4975245;28;20061;-88
2022/10/22 01:37:29;;;;;;;;;;;17.70;63.50;;;;;;4992674;28;19918;-87
2022/10/22 01:39:56;;;;;;;;;;;17.70;63.50;;;;;;4991193;28;19922;-88
2022/10/22 01:42:22;;;;;;;;;;;17.80;63.50;;;;;;4976929;28;19910;-88
2022/10/22 01:44:49;;;;;;;;;;;17.80;63.70;;;;;;4992157;28;19925;-87
2022/10/22 01:47:20;;;;;;;;;;;17.80;63.70;;;;;;4991617;28;20373;-87
2022/10/22 01:49:52;;;;;;;;;;;17.90;63.80;;;;;;4973967;28;19918;-88
2022/10/22 01:52:23;;;;;;;;;;;18.00;63.80;;;;;;4992003;28;19909;-87
2022/10/22 01:55:02;;;;;;;;;;;18.00;63.80;;;;;;4993436;28;19921;-88
2022/10/22 01:57:41;;;;;;;;;;;18.10;63.90;;;;;;5000057;28;19918;-88
2022/10/22 02:00:12;;;;;;;;;;;18.00;63.80;;;;;;4994014;28;20447;-87
2022/10/22 02:02:56;;;;;;;;;;;18.00;63.70;;;;;;4993155;28;19933;-87
2022/10/22 02:05:27;;;;;;;;;;;18.00;63.70;;;;;;4993433;28;19968;-87
2022/10/22 02:08:05;;;;;;;;;;;17.90;63.60;;;;;;5011333;28;19920;-89
2022/10/22 02:10:31;;;;;;;;;;;18.00;63.60;;;;;;4977567;28;20008;-87
2022/10/22 02:12:57;;;;;;;;;;;18.00;63.50;;;;;;5011854;28;19950;-89
2022/10/22 02:15:24;;;;;;;;;;;18.00;63.50;;;;;;5012566;28;19921;-88
2022/10/22 02:17:50;;;;;;;;;;;17.90;63.50;;;;;;5011314;28;19922;-87
2022/10/22 02:20:21;;;;;;;;;;;17.80;63.50;;;;;;4993630;28;20008;-86
2022/10/22 02:22:47;;;;;;;;;;;17.80;63.50;;;;;;5012870;28;20075;-88
2022/10/22 02:25:13;;;;;;;;;;;17.80;63.50;;;;;;4994192;28;20024;-88
2022/10/22 02:27:50;;;;;;;;;;;17.70;63.50;;;;;;4994134;28;20482;-86
2022/10/22 02:30:18;;;;;;;;;;;17.70;63.50;;;;;;4993339;28;19924;-88
2022/10/22 02:32:50;;;;;;;;;;;17.60;63.50;;;;;;5011952;28;20197;-88
2022/10/22 02:35:18;;;;;;;;;;;17.60;63.60;;;;;;4991244;28;20288;-87
2022/10/22 02:37:44;;;;;;;;;;;17.50;63.60;;;;;;4974402;28;20009;-88
2022/10/22 02:40:10;;;;;;;;;;;17.50;63.40;;;;;;4971687;28;20344;-88
2022/10/22 02:42:36;;;;;;;;;;;17.50;63.40;;;;;;4991174;28;19968;-87
2022/10/22 02:45:02;;;;;;;;;;;17.50;63.30;;;;;;4989218;28;20289;-87
2022/10/22 02:47:28;;;;;;;;;;;17.40;63.40;;;;;;4972431;28;19941;-87
2022/10/22 02:49:53;;;;;;;;;;;17.40;63.40;;;;;;4990379;28;19918;-88
2022/10/22 02:52:19;;;;;;;;;;;17.40;63.40;;;;;;5000153;28;20400;-87
2022/10/22 02:54:44;;;;;;;;;;;17.40;63.30;;;;;;4983841;28;20016;-88
2022/10/22 02:57:10;;;;;;;;;;;17.40;63.30;;;;;;5003543;28;20012;-87
2022/10/22 02:59:35;;;;;;;;;;;17.30;63.30;;;;;;4990163;28;19918;-84
2022/10/22 03:02:01;;;;;;;;;;;17.30;63.10;;;;;;4986130;28;19913;-85
2022/10/22 03:04:26;;;;;;;;;;;17.30;63.10;;;;;;4991125;28;19925;-88
2022/10/22 03:06:52;;;;;;;;;;;17.20;63.20;;;;;;4990823;28;19921;-87
2022/10/22 03:09:18;;;;;;;;;;;17.30;63.30;;;;;;4993041;28;19918;-87
2022/10/22 03:11:43;;;;;;;;;;;17.20;63.50;;;;;;4993330;28;19964;-88
2022/10/22 03:14:09;;;;;;;;;;;17.30;63.80;;;;;;4994399;28;19959;-88
2022/10/22 03:16:34;;;;;;;;;;;17.20;63.90;;;;;;4994626;28;19975;-88
2022/10/22 03:19:00;;;;;;;;;;;17.20;63.90;;;;;;4993167;28;20246;-88
2022/10/22 03:21:44;;;;;;;;;;;17.30;64.00;;;;;;4993086;28;19914;-89
2022/10/22 03:24:12;;;;;;;;;;;17.30;63.90;;;;;;4994155;28;19921;-88
2022/10/22 03:26:39;;;;;;;;;;;17.30;64.00;;;;;;4992831;28;20349;-89
2022/10/22 03:29:05;;;;;;;;;;;17.30;64.00;;;;;;4992682;28;19914;-86
2022/10/22 03:31:31;;;;;;;;;;;17.30;63.90;;;;;;4992892;28;19917;-87
2022/10/22 03:33:56;;;;;;;;;;;17.30;63.70;;;;;;4994976;28;19968;-86
2022/10/22 03:36:22;;;;;;;;;;;17.30;63.60;;;;;;4993208;28;19914;-88
2022/10/22 03:38:48;;;;;;;;;;;17.30;63.50;;;;;;4993667;28;19914;-87
2022/10/22 03:41:13;;;;;;;;;;;17.20;63.70;;;;;;4992570;28;20033;-88
2022/10/22 03:43:39;;;;;;;;;;;17.30;63.70;;;;;;4997678;28;19953;-88
2022/10/22 03:46:05;;;;;;;;;;;17.20;63.60;;;;;;4995400;28;19918;-86
2022/10/22 03:48:31;;;;;;;;;;;17.20;63.60;;;;;;4995299;28;19917;-88
2022/10/22 03:50:56;;;;;;;;;;;17.20;63.40;;;;;;4992586;28;19917;-89
2022/10/22 03:53:22;;;;;;;;;;;17.20;63.30;;;;;;4993932;28;19984;-87
2022/10/22 03:55:47;;;;;;;;;;;17.20;63.10;;;;;;4993049;28;20269;-88
2022/10/22 03:58:13;;;;;;;;;;;17.10;63.10;;;;;;4993113;28;19925;-88
2022/10/22 04:00:39;;;;;;;;;;;17.10;63.10;;;;;;4993638;28;19997;-87
2022/10/22 04:03:04;;;;;;;;;;;17.10;63.10;;;;;;4992354;28;19931;-89
2022/10/22 04:05:31;;;;;;;;;;;17.10;63.00;;;;;;4991766;28;20550;-87
2022/10/22 04:07:56;;;;;;;;;;;17.00;63.10;;;;;;4991663;28;19909;-87
2022/10/22 04:10:22;;;;;;;;;;;17.00;63.10;;;;;;4991872;28;19928;-87
2022/10/22 04:12:47;;;;;;;;;;;17.00;63.00;;;;;;4993108;28;19914;-88
2022/10/22 04:15:13;;;;;;;;;;;17.00;62.90;;;;;;4993398;28;20381;-88
2022/10/22 04:17:38;;;;;;;;;;;16.90;62.80;;;;;;4991749;28;20001;-87
2022/10/22 04:20:04;;;;;;;;;;;16.90;62.80;;;;;;4991979;28;20005;-87
2022/10/22 04:22:31;;;;;;;;;;;16.80;62.70;;;;;;4994588;28;20369;-87
2022/10/22 04:24:57;;;;;;;;;;;16.80;62.70;;;;;;4991960;28;20435;-87
2022/10/22 04:27:22;;;;;;;;;;;16.80;62.80;;;;;;4993313;28;19913;-88
2022/10/22 04:29:48;;;;;;;;;;;16.70;62.80;;;;;;4991989;28;19925;-88
2022/10/22 04:32:13;;;;;;;;;;;16.70;62.80;;;;;;4991293;28;19910;-87
2022/10/22 04:34:39;;;;;;;;;;;16.70;62.80;;;;;;4993082;28;19929;-87
2022/10/22 04:37:04;;;;;;;;;;;16.60;62.90;;;;;;4991618;28;19910;-87
2022/10/22 04:39:30;;;;;;;;;;;16.60;63.00;;;;;;4991834;28;20078;-88
2022/10/22 04:41:56;;;;;;;;;;;16.60;63.10;;;;;;4992702;28;19910;-86
2022/10/22 04:44:21;;;;;;;;;;;16.60;63.00;;;;;;4985538;28;19933;-87
2022/10/22 04:46:47;;;;;;;;;;;16.50;62.90;;;;;;4993122;28;20411;-88
2022/10/22 04:49:12;;;;;;;;;;;16.50;62.90;;;;;;4991132;28;19918;-87
2022/10/22 04:51:37;;;;;;;;;;;16.50;62.90;;;;;;4992540;28;20019;-88
2022/10/22 04:54:03;;;;;;;;;;;16.50;62.80;;;;;;4994201;28;20412;-88
2022/10/22 04:56:29;;;;;;;;;;;16.40;62.60;;;;;;4991546;28;19917;-87
2022/10/22 04:58:56;;;;;;;;;;;16.30;62.60;;;;;;5012223;28;19909;-87
2022/10/22 05:01:25;;;;;;;;;;;16.30;62.80;;;;;;5013748;28;20276;-87
2022/10/22 05:03:51;;;;;;;;;;;16.30;63.00;;;;;;5013134;28;19921;-88
2022/10/22 05:06:19;;;;;;;;;;;16.30;63.10;;;;;;4994389;28;19943;-87
2022/10/22 05:08:45;;;;;;;;;;;16.30;63.20;;;;;;4995854;28;19909;-88
2022/10/22 05:11:15;;;;;;;;;;;16.30;63.20;;;;;;4994857;28;19996;-88
2022/10/22 05:13:40;;;;;;;;;;;16.30;63.20;;;;;;5014103;28;19910;-88
2022/10/22 05:16:06;;;;;;;;;;;16.30;63.20;;;;;;5013535;28;19940;-87
2022/10/22 05:18:35;;;;;;;;;;;16.40;63.20;;;;;;5012891;28;19957;-88
2022/10/22 05:21:01;;;;;;;;;;;16.40;63.30;;;;;;4996109;28;19928;-86
2022/10/22 05:23:27;;;;;;;;;;;16.40;63.40;;;;;;5014344;28;19913;-87
2022/10/22 05:25:53;;;;;;;;;;;16.40;63.30;;;;;;5013212;28;19925;-86
2022/10/22 05:28:19;;;;;;;;;;;16.30;63.10;;;;;;5012122;28;19913;-88
2022/10/22 05:30:55;;;;;;;;;;;16.30;62.90;;;;;;4994451;28;19928;-88
2022/10/22 05:33:21;;;;;;;;;;;16.20;62.70;;;;;;4996311;28;19913;-84
2022/10/22 05:35:50;;;;;;;;;;;16.20;62.60;;;;;;4994828;28;20269;-87
2022/10/22 05:38:16;;;;;;;;;;;16.10;62.70;;;;;;5012244;28;19953;-88
2022/10/22 05:40:41;;;;;;;;;;;16.10;62.80;;;;;;5013855;28;19921;-85
2022/10/22 05:43:07;;;;;;;;;;;16.10;62.80;;;;;;5011053;28;20467;-86
2022/10/22 05:45:36;;;;;;;;;;;16.00;62.70;;;;;;5011332;28;19921;-85
2022/10/22 05:48:01;;;;;;;;;;;16.00;62.80;;;;;;5011689;28;19913;-87
2022/10/22 05:50:27;;;;;;;;;;;16.00;63.00;;;;;;5011604;28;19987;-86
2022/10/22 05:52:52;;;;;;;;;;;16.10;63.40;;;;;;5013076;28;19957;-87
2022/10/22 05:55:18;;;;;;;;;;;16.20;63.70;;;;;;5012748;28;20433;-87
2022/10/22 05:57:43;;;;;;;;;;;16.20;64.00;;;;;;5011150;28;19918;-88
2022/10/22 06:00:09;;;;;;;;;;;16.30;64.10;;;;;;4994198;28;19937;-87
2022/10/22 06:02:35;;;;;;;;;;;16.30;64.20;;;;;;5011122;28;19910;-88
2022/10/22 06:05:00;;;;;;;;;;;16.40;64.30;;;;;;5012152;28;20015;-87
2022/10/22 06:07:26;;;;;;;;;;;16.40;64.30;;;;;;5011349;28;19910;-89
2022/10/22 06:09:52;;;;;;;;;;;16.40;64.40;;;;;;4994303;28;19925;-86
2022/10/22 06:12:18;;;;;;;;;;;16.40;64.50;;;;;;5011197;28;19913;-87
2022/10/22 06:14:43;;;;;;;;;;;16.40;64.60;;;;;;5012112;28;19917;-87
2022/10/22 06:17:10;;;;;;;;;;;16.50;64.60;;;;;;4993540;28;20436;-87
2022/10/22 06:19:35;;;;;;;;;;;16.50;64.60;;;;;;5006428;28;19949;-88
2022/10/22 06:22:02;;;;;;;;;;;16.50;64.60;;;;;;4980587;28;20410;-86
2022/10/22 06:24:27;;;;;;;;;;;16.50;64.60;;;;;;4976383;28;19925;-88
2022/10/22 06:26:53;;;;;;;;;;;16.60;64.70;;;;;;4994440;28;20487;-88
2022/10/22 06:29:19;;;;;;;;;;;16.60;64.60;;;;;;4978117;28;20421;-86
2022/10/22 06:31:44;;;;;;;;;;;16.60;64.50;;;;;;4982228;28;19909;-88
2022/10/22 06:34:11;;;;;;;;;;;16.60;64.50;;;;;;4977926;28;19980;-88
2022/10/22 06:36:36;;;;;;;;;;;16.70;64.50;;;;;;4990193;28;19966;-87
2022/10/22 06:39:02;;;;;;;;;;;16.70;64.60;;;;;;4957837;28;19941;-86
2022/10/22 06:41:28;;;;;;;;;;;16.70;64.60;;;;;;4962708;28;19944;-86
2022/10/22 06:43:54;;;;;;;;;;;16.80;64.60;;;;;;4976723;28;19933;-86
2022/10/22 06:46:20;;;;;;;;;;;16.80;64.40;;;;;;5012701;28;19936;-88
2022/10/22 06:48:49;;;;;;;;;;;16.80;64.40;;;;;;4978944;28;19921;-88
2022/10/22 06:51:15;;;;;;;;;;;16.90;64.50;;;;;;4994363;28;19973;-87
2022/10/22 06:53:41;;;;;;;;;;;17.00;65.10;;;;;;4994639;28;19910;-88
2022/10/22 06:56:11;;;;;;;;;;;17.20;66.00;;;;;;4995336;28;19941;-87
2022/10/22 06:58:36;;;;;;;;;;;17.50;66.70;;;;;;4991372;28;20199;-87
2022/10/22 07:01:03;;;;;;;;;;;17.80;67.20;;;;;;4994037;28;20008;-88
2022/10/22 07:03:28;;;;;;;;;;;18.20;67.90;;;;;;4992891;28;19957;-86
2022/10/22 07:05:54;;;;;;;;;;;18.60;68.40;;;;;;4993442;28;19961;-86
2022/10/22 07:08:19;;;;;;;;;;;18.90;68.40;;;;;;4992748;28;19914;-88
2022/10/22 07:10:45;;;;;;;;;;;19.30;67.90;;;;;;4994328;28;19984;-87
2022/10/22 07:13:10;;;;;;;;;;;19.50;67.70;;;;;;4994395;28;20308;-87
2022/10/22 07:15:36;;;;;;;;;;;19.80;67.80;;;;;;4992770;28;19922;-88
2022/10/22 07:18:03;;;;;;;;;;;20.30;68.80;;;;;;4994110;28;20365;-89
2022/10/22 07:20:29;;;;;;;;;;;20.70;69.70;;;;;;4992568;28;20440;-85
2022/10/22 07:22:54;;;;;;;;;;;21.20;69.80;;;;;;4992668;28;19922;-88
2022/10/22 07:25:20;;;;;;;;;;;21.80;70.30;;;;;;4994159;28;19973;-87
2022/10/22 07:27:45;;;;;;;;;;;22.30;70.30;;;;;;4990425;28;20295;-86
2022/10/22 07:30:11;;;;;;;;;;;22.80;70.30;;;;;;4998296;28;19944;-89
2022/10/22 07:32:36;;;;;;;;;;;23.30;70.10;;;;;;4987114;28;20388;-87
2022/10/22 07:35:03;;;;;;;;;;;23.90;70.00;;;;;;4994233;28;19918;-87
2022/10/22 07:37:28;;;;;;;;;;;24.30;69.50;;;;;;4993494;28;19910;-87
2022/10/22 07:39:54;;;;;;;;;;;24.70;69.20;;;;;;4995645;28;19932;-87
2022/10/22 07:42:19;;;;;;;;;;;25.20;69.10;;;;;;4991588;28;20329;-86
2022/10/22 07:44:45;;;;;;;;;;;25.60;68.60;;;;;;4989199;28;19926;-86
2022/10/22 07:47:10;;;;;;;;;;;25.80;66.50;;;;;;4986315;28;19914;-88
2022/10/22 07:49:36;;;;;;;;;;;25.80;65.90;;;;;;4993991;28;19918;-88
2022/10/22 07:52:01;;;;;;;;;;;25.90;66.20;;;;;;4983320;28;19918;-87
2022/10/22 07:54:27;;;;;;;;;;;26.20;67.50;;;;;;5010478;28;19953;-87
2022/10/22 07:56:53;;;;;;;;;;;26.50;67.40;;;;;;4990209;28;19925;-88
2022/10/22 07:59:18;;;;;;;;;;;26.70;66.80;;;;;;4965809;28;19965;-88
2022/10/22 08:01:45;;;;;;;;;;;26.70;66.10;;;;;;4985285;28;20384;-89
2022/10/22 08:04:11;;;;;;;;;;;26.70;65.50;;;;;;4963919;28;19930;-88
2022/10/22 08:06:37;;;;;;;;;;;26.60;65.90;;;;;;4989896;28;19941;-87
2022/10/22 08:09:03;;;;;;;;;;;26.70;66.70;;;;;;4989429;28;19910;-86
2022/10/22 08:11:29;;;;;;;;;;;27.00;67.80;;;;;;4973069;28;19914;-87
2022/10/22 08:13:55;;;;;;;;;;;27.30;68.10;;;;;;4967627;28;19909;-87
2022/10/22 08:16:21;;;;;;;;;;;27.80;68.40;;;;;;4961724;28;19921;-88
2022/10/22 08:18:46;;;;;;;;;;;28.30;68.20;;;;;;4974545;28;19913;-89
2022/10/22 08:21:12;;;;;;;;;;;28.60;67.60;;;;;;4990154;28;20276;-88
2022/10/22 08:23:38;;;;;;;;;;;28.90;66.90;;;;;;4992601;28;19914;-88
2022/10/22 08:26:04;;;;;;;;;;;29.20;66.70;;;;;;4990379;28;19929;-87
2022/10/22 08:28:31;;;;;;;;;;;29.40;66.60;;;;;;4983785;28;19926;-87
2022/10/22 08:30:57;;;;;;;;;;;29.70;66.30;;;;;;4965608;28;19922;-87
2022/10/22 08:33:23;;;;;;;;;;;29.90;65.70;;;;;;4989568;28;19940;-88
2022/10/22 08:35:49;;;;;;;;;;;30.00;63.70;;;;;;4994994;28;20001;-90
2022/10/22 08:38:14;;;;;;;;;;;30.10;64.50;;;;;;4990864;28;19914;-87
2022/10/22 08:40:41;;;;;;;;;;;30.30;64.70;;;;;;4988815;28;19921;-86
2022/10/22 08:43:23;;;;;;;;;;;30.50;64.10;;;;;;4959862;28;19914;-87
2022/10/22 08:46:03;;;;;;;;;;;30.60;64.10;;;;;;4990764;28;20288;-88
2022/10/22 08:48:45;;;;;;;;;;;30.70;63.20;;;;;;4992411;28;19933;-89
2022/10/22 08:51:14;;;;;;;;;;;30.90;63.60;;;;;;4990438;28;19979;-87
2022/10/22 08:53:56;;;;;;;;;;;31.00;62.90;;;;;;4996516;28;19918;-87
2022/10/22 08:56:22;;;;;;;;;;;31.10;62.30;;;;;;4961025;28;19960;-88
2022/10/22 08:58:57;;;;;;;;;;;31.20;60.40;;;;;;4989673;28;19995;-89
2022/10/22 09:01:43;;;;;;;;;;;31.00;57.70;;;;;;4969044;28;19957;-87
2022/10/22 09:04:15;;;;;;;;;;;31.00;58.40;;;;;;4961811;28;19922;-88
2022/10/22 09:06:43;;;;;;;;;;;31.00;58.90;;;;;;4987941;28;19976;-87
2022/10/22 09:09:11;;;;;;;;;;;30.90;57.20;;;;;;4988902;28;19961;-87
2022/10/22 09:11:37;;;;;;;;;;;31.00;58.10;;;;;;4974945;28;19976;-88
2022/10/22 09:14:03;;;;;;;;;;;31.10;57.60;;;;;;4970559;28;19918;-88
2022/10/22 09:16:35;;;;;;;;;;;31.00;56.70;;;;;;4990046;28;19925;-88
2022/10/22 09:19:09;;;;;;;;;;;30.80;54.90;;;;;;4990813;28;19914;-88
2022/10/22 09:21:34;;;;;;;;;;;30.60;53.20;;;;;;4987475;28;19934;-88
2022/10/22 09:24:09;;;;;;;;;;;30.60;56.00;;;;;;4960546;28;20009;-88
2022/10/22 09:26:36;;;;;;;;;;;30.80;56.30;;;;;;4984229;28;19937;-88
2022/10/22 09:29:02;;;;;;;;;;;30.90;55.10;;;;;;4989402;28;19917;-88
2022/10/22 09:31:29;;;;;;;;;;;30.80;54.80;;;;;;4972333;28;19961;-87
2022/10/22 09:33:56;;;;;;;;;;;30.70;52.40;;;;;;4974358;28;19959;-87
2022/10/22 09:36:22;;;;;;;;;;;30.50;50.70;;;;;;4988612;28;20325;-88
2022/10/22 09:38:49;;;;;;;;;;;30.30;52.00;;;;;;4989507;28;19917;-87
2022/10/22 09:41:15;;;;;;;;;;;30.00;52.10;;;;;;4986902;28;19918;-87
2022/10/22 09:43:41;;;;;;;;;;;30.20;52.50;;;;;;4982317;28;19913;-88
2022/10/22 09:46:13;;;;;;;;;;;30.30;53.80;;;;;;4958605;28;19928;-88
2022/10/22 09:48:41;;;;;;;;;;;30.50;51.20;;;;;;4973311;28;19960;-89
2022/10/22 09:51:09;;;;;;;;;;;30.70;52.40;;;;;;4965669;28;20349;-87
2022/10/22 09:53:36;;;;;;;;;;;31.00;52.80;;;;;;4996863;28;19917;-87
2022/10/22 09:56:06;;;;;;;;;;;31.40;51.70;;;;;;4968278;28;20001;-87
2022/10/22 09:58:44;;;;;;;;;;;31.60;48.80;;;;;;4998049;28;19918;-87
2022/10/22 10:01:15;;;;;;;;;;;31.80;49.30;;;;;;4998648;28;19921;-87
2022/10/22 10:03:41;;;;;;;;;;;31.90;49.70;;;;;;4999542;28;19918;-88
2022/10/22 10:06:07;;;;;;;;;;;32.20;47.70;;;;;;5012101;28;19929;-88
2022/10/22 10:08:32;;;;;;;;;;;32.40;48.40;;;;;;5007004;28;20360;-87
2022/10/22 10:10:59;;;;;;;;;;;32.40;43.30;;;;;;5012029;28;20373;-88
2022/10/22 10:13:28;;;;;;;;;;;32.20;43.10;;;;;;5012550;28;20000;-87
2022/10/22 10:15:56;;;;;;;;;;;32.00;43.90;;;;;;5014534;28;19921;-85
2022/10/22 10:18:31;;;;;;;;;;;31.80;43.20;;;;;;5003116;28;19960;-87
2022/10/22 10:20:56;;;;;;;;;;;31.60;44.80;;;;;;5014335;28;19921;-88
2022/10/22 10:23:40;;;;;;;;;;;31.40;44.20;;;;;;5014951;28;20211;-87
2022/10/22 10:26:26;;;;;;;;;;;31.30;44.10;;;;;;4994322;28;19937;-86
2022/10/22 10:28:55;;;;;;;;;;;31.00;43.20;;;;;;4995695;28;19914;-87
2022/10/22 10:31:40;;;;;;;;;;;30.60;41.30;;;;;;5005031;28;20015;-89
2022/10/22 10:34:23;;;;;;;;;;;30.20;41.70;;;;;;5012374;28;20004;-89
2022/10/22 10:36:53;;;;;;;;;;;29.90;43.70;;;;;;5013839;28;19918;-88
2022/10/22 10:39:32;;;;;;;;;;;29.80;44.00;;;;;;5018516;28;19921;-88
2022/10/22 10:42:02;;;;;;;;;;;29.80;44.00;;;;;;5002199;28;19913;-90
2022/10/22 10:44:47;;;;;;;;;;;29.70;42.30;;;;;;5020018;28;19937;-89
2022/10/22 10:47:31;;;;;;;;;;;29.60;43.10;;;;;;5015950;28;19924;-88
2022/10/22 10:50:12;;;;;;;;;;;29.40;42.10;;;;;;5016993;28;20397;-88
2022/10/22 10:52:50;;;;;;;;;;;29.20;41.70;;;;;;5019029;28;19918;-89
2022/10/22 10:55:34;;;;;;;;;;;29.00;42.00;;;;;;5015572;28;19921;-87
2022/10/22 10:58:09;;;;;;;;;;;28.70;41.90;;;;;;5001269;28;19980;-89
2022/10/22 11:00:39;;;;;;;;;;;28.40;42.00;;;;;;4993788;28;19976;-88
2022/10/22 11:03:14;;;;;;;;;;;28.30;43.40;;;;;;4975308;28;19914;-88
2022/10/22 11:05:44;;;;;;;;;;;28.20;43.50;;;;;;4986509;28;19941;-89
2022/10/22 11:08:13;;;;;;;;;;;28.10;43.60;;;;;;4992068;28;19944;-89
2022/10/22 11:10:43;;;;;;;;;;;28.00;44.00;;;;;;4972895;28;19981;-89
2022/10/22 11:13:14;;;;;;;;;;;28.00;44.30;;;;;;4991184;28;20316;-88
2022/10/22 11:15:42;;;;;;;;;;;28.10;43.70;;;;;;4968785;28;20016;-87
2022/10/22 11:18:11;;;;;;;;;;;28.00;44.20;;;;;;4972224;28;20493;-89
2022/10/22 11:20:42;;;;;;;;;;;27.80;44.60;;;;;;4986778;28;19921;-88
2022/10/22 11:23:10;;;;;;;;;;;27.70;45.10;;;;;;4967752;28;19957;-87
2022/10/22 11:25:41;;;;;;;;;;;27.50;45.10;;;;;;4986654;28;20300;-88
2022/10/22 11:28:13;;;;;;;;;;;27.30;45.40;;;;;;4988555;28;20288;-88
2022/10/22 11:30:40;;;;;;;;;;;27.10;45.70;;;;;;4979434;28;20335;-89
2022/10/22 11:33:09;;;;;;;;;;;26.90;45.50;;;;;;4982511;28;19918;-87
2022/10/22 11:35:37;;;;;;;;;;;26.80;45.90;;;;;;4987166;28;19928;-89
2022/10/22 11:38:04;;;;;;;;;;;26.70;45.60;;;;;;4993034;28;19925;-88
2022/10/22 11:40:38;;;;;;;;;;;26.70;45.80;;;;;;4979559;28;19926;-87
2022/10/22 11:43:29;;;;;;;;;;;26.70;46.20;;;;;;4978502;28;19940;-90
2022/10/22 11:46:01;;;;;;;;;;;26.90;46.10;;;;;;4991171;28;19930;-89
2022/10/22 11:48:28;;;;;;;;;;;27.50;46.30;;;;;;4987382;28;19918;-89
2022/10/22 11:50:56;;;;;;;;;;;27.80;44.80;;;;;;4962863;28;19922;-88
2022/10/22 11:53:24;;;;;;;;;;;27.90;44.20;;;;;;4968041;28;19917;-86
2022/10/22 11:55:56;;;;;;;;;;;28.10;44.10;;;;;;4968761;28;19941;-89
2022/10/22 11:58:21;;;;;;;;;;;28.40;44.10;;;;;;4965547;28;19933;-88
2022/10/22 12:00:48;;;;;;;;;;;28.70;43.40;;;;;;4968690;28;20297;-89
2022/10/22 12:03:36;;;;;;;;;;;28.90;42.20;;;;;;4988034;28;19918;-88
2022/10/22 12:06:10;;;;;;;;;;;28.80;40.60;;;;;;4982361;28;19930;-87
2022/10/22 12:08:42;;;;;;;;;;;28.80;41.30;;;;;;4958711;28;20061;-87
2022/10/22 12:11:10;;;;;;;;;;;28.80;40.90;;;;;;4981383;28;19928;-89
2022/10/22 12:13:57;;;;;;;;;;;28.70;40.70;;;;;;4968818;28;19918;-88
2022/10/22 12:16:43;;;;;;;;;;;28.50;40.70;;;;;;4986611;28;19926;-88
2022/10/22 12:19:08;;;;;;;;;;;28.30;41.00;;;;;;4985307;28;19917;-86
2022/10/22 12:21:34;;;;;;;;;;;27.90;41.50;;;;;;4988113;28;19918;-88
2022/10/22 12:24:01;;;;;;;;;;;27.70;42.10;;;;;;4967869;28;19925;-89
2022/10/22 12:26:29;;;;;;;;;;;27.50;42.40;;;;;;4966847;28;19917;-89
2022/10/22 12:28:58;;;;;;;;;;;27.30;42.50;;;;;;4970350;28;20349;-90
2022/10/22 12:31:23;;;;;;;;;;;27.10;42.40;;;;;;4978078;28;19925;-88
2022/10/22 12:33:56;;;;;;;;;;;26.80;42.20;;;;;;4980266;28;19917;-89
2022/10/22 12:36:21;;;;;;;;;;;26.70;43.00;;;;;;4974867;28;19926;-87
2022/10/22 12:38:47;;;;;;;;;;;26.60;43.70;;;;;;4986701;28;20266;-87
2022/10/22 12:41:12;;;;;;;;;;;26.60;43.90;;;;;;4965475;28;19921;-89
2022/10/22 12:43:38;;;;;;;;;;;26.50;44.60;;;;;;4969963;28;19918;-90
2022/10/22 12:46:12;;;;;;;;;;;26.40;44.60;;;;;;4989728;28;20304;-88
2022/10/22 12:48:40;;;;;;;;;;;26.50;44.50;;;;;;4990125;28;20415;-89
2022/10/22 12:51:09;;;;;;;;;;;26.40;44.30;;;;;;4988439;28;19976;-87
2022/10/22 12:53:38;;;;;;;;;;;26.20;43.80;;;;;;4986353;28;20387;-89
2022/10/22 12:56:10;;;;;;;;;;;26.10;43.70;;;;;;4965107;28;19922;-88
2022/10/22 12:58:38;;;;;;;;;;;26.00;44.30;;;;;;4987358;28;20008;-90
2022/10/22 13:01:04;;;;;;;;;;;26.10;44.70;;;;;;4958969;28;19922;-87
2022/10/22 13:03:32;;;;;;;;;;;26.10;45.30;;;;;;4988143;28;19944;-92
2022/10/22 13:06:16;;;;;;;;;;;26.00;45.90;;;;;;4965817;28;19981;-89
2022/10/22 13:08:42;;;;;;;;;;;26.10;46.00;;;;;;4970388;28;19922;-88
2022/10/22 13:11:09;;;;;;;;;;;26.00;45.20;;;;;;4985975;28;20024;-89
2022/10/22 13:13:37;;;;;;;;;;;25.90;44.60;;;;;;4968637;28;19921;-87
2022/10/22 13:16:15;;;;;;;;;;;25.90;44.80;;;;;;4983911;28;19928;-90
2022/10/22 13:18:42;;;;;;;;;;;25.80;44.50;;;;;;4977799;28;19925;-89
2022/10/22 13:21:28;;;;;;;;;;;25.90;44.50;;;;;;4968482;28;19922;-89
2022/10/22 13:23:58;;;;;;;;;;;26.00;44.50;;;;;;4984137;28;19921;-88
2022/10/22 13:26:30;;;;;;;;;;;26.00;44.50;;;;;;4972017;28;19917;-88
2022/10/22 13:28:56;;;;;;;;;;;26.10;44.20;;;;;;4974626;28;19913;-89
2022/10/22 13:31:23;;;;;;;;;;;26.10;43.90;;;;;;4989853;28;19918;-87
2022/10/22 13:33:54;;;;;;;;;;;26.10;43.40;;;;;;4990640;28;20004;-87
2022/10/22 13:36:20;;;;;;;;;;;25.90;43.20;;;;;;4989728;28;19926;-88
2022/10/22 13:38:45;;;;;;;;;;;25.90;43.40;;;;;;4971002;28;19921;-88
2022/10/22 13:41:18;;;;;;;;;;;25.80;43.00;;;;;;4988176;28;19918;-89
2022/10/22 13:43:44;;;;;;;;;;;25.70;43.30;;;;;;4972587;28;20036;-89
2022/10/22 13:46:10;;;;;;;;;;;25.60;43.50;;;;;;4986507;28;20044;-88
2022/10/22 13:48:35;;;;;;;;;;;25.60;43.50;;;;;;4968428;28;19932;-88
2022/10/22 13:51:01;;;;;;;;;;;25.50;43.50;;;;;;4986013;28;20332;-89
2022/10/22 13:53:28;;;;;;;;;;;25.50;43.80;;;;;;4970939;28;19918;-89
2022/10/22 13:55:53;;;;;;;;;;;25.50;44.00;;;;;;4989424;28;19926;-89
2022/10/22 13:58:20;;;;;;;;;;;25.50;44.20;;;;;;4980447;28;19933;-87
2022/10/22 14:00:48;;;;;;;;;;;25.50;44.10;;;;;;4976911;28;19950;-87
2022/10/22 14:03:19;;;;;;;;;;;25.40;44.00;;;;;;4986467;28;19991;-88
2022/10/22 14:05:45;;;;;;;;;;;25.30;44.20;;;;;;4977782;28;19937;-87
2022/10/22 14:08:12;;;;;;;;;;;25.30;44.00;;;;;;4981096;28;19922;-88
2022/10/22 14:10:38;;;;;;;;;;;25.30;44.00;;;;;;4985896;28;19922;-88
2022/10/22 14:13:11;;;;;;;;;;;25.10;44.30;;;;;;4986994;28;19924;-89
2022/10/22 14:15:36;;;;;;;;;;;24.90;44.80;;;;;;4987900;28;19941;-86
2022/10/22 14:18:03;;;;;;;;;;;24.80;45.40;;;;;;4979845;28;19915;-87
2022/10/22 14:20:29;;;;;;;;;;;24.80;45.80;;;;;;4968484;28;19918;-89
2022/10/22 14:22:55;;;;;;;;;;;24.70;46.30;;;;;;4967842;28;19969;-87